createdAt,value
2018-07-24T00:00:43.256Z,15.83
2018-07-24T00:03:11.023Z,13.43
2018-07-24T00:05:38.811Z,17.25
2018-07-24T00:08:06.581Z,16.85
2018-07-24T00:10:34.338Z,14.83
2018-07-24T00:13:02.217Z,16.02
2018-07-24T00:15:29.987Z,15.13
2018-07-24T00:18:03.863Z,13.25
2018-07-24T00:20:31.641Z,13.53
2018-07-24T00:22:59.474Z,12.18
2018-07-24T00:25:27.186Z,13.05
2018-07-24T00:27:54.964Z,11.83
2018-07-24T00:30:22.845Z,11.70
2018-07-24T00:32:50.550Z,11.75
2018-07-24T00:35:18.289Z,12.03
2018-07-24T00:37:45.994Z,13.43
2018-07-24T00:40:13.673Z,13.20
2018-07-24T00:42:41.459Z,13.75
2018-07-24T00:45:09.205Z,14.25
2018-07-24T00:47:37.123Z,14.07
2018-07-24T00:50:04.978Z,15.13
2018-07-24T00:52:32.865Z,14.50
2018-07-24T00:55:00.445Z,13.18
2018-07-24T00:57:28.178Z,13.30
2018-07-24T00:59:55.924Z,14.40
2018-07-24T01:02:23.850Z,12.63
2018-07-24T01:04:51.610Z,12.78
2018-07-24T01:07:19.385Z,11.75
2018-07-24T01:09:47.134Z,10.72
2018-07-24T01:12:14.949Z,12.18
2018-07-24T01:14:42.868Z,11.60
2018-07-24T01:17:10.569Z,15.28
2018-07-24T01:19:38.432Z,15.18
2018-07-24T01:22:06.323Z,14.87
2018-07-24T01:24:35.366Z,12.78
2018-07-24T01:27:03.332Z,10.93
2018-07-24T01:29:31.158Z,11.28
2018-07-24T01:31:58.971Z,11.48
2018-07-24T01:34:26.638Z,11.00
2018-07-24T01:36:54.455Z,13.05
2018-07-24T01:39:22.268Z,13.18
2018-07-24T01:41:49.958Z,14.60
2018-07-24T01:44:17.773Z,14.28
2018-07-24T01:46:45.698Z,14.75
2018-07-24T01:49:13.433Z,14.20
2018-07-24T01:51:41.149Z,12.75
2018-07-24T01:54:08.905Z,13.43
2018-07-24T01:56:36.642Z,12.95
2018-07-24T01:59:04.606Z,14.05
2018-07-24T02:01:32.306Z,13.35
2018-07-24T02:03:59.909Z,12.93
2018-07-24T02:06:27.579Z,13.08
2018-07-24T02:08:55.305Z,13.98
2018-07-24T02:11:23.126Z,13.53
2018-07-24T02:13:50.867Z,14.53
2018-07-24T02:16:19.185Z,15.13
2018-07-24T02:18:47.154Z,14.73
2018-07-24T02:21:14.825Z,14.75
2018-07-24T02:23:42.565Z,12.82
2018-07-24T02:26:10.292Z,12.23
2018-07-24T02:28:38.045Z,11.57
2018-07-24T02:31:05.846Z,10.18
2018-07-24T02:33:33.554Z,11.48
2018-07-24T02:36:01.633Z,10.90
2018-07-24T02:38:29.349Z,12.20
2018-07-24T02:40:57.099Z,12.07
2018-07-24T02:43:24.857Z,14.83
2018-07-24T02:45:52.583Z,16.25
2018-07-24T02:48:20.385Z,16.95
2018-07-24T02:50:48.120Z,17.48
2018-07-24T02:53:15.851Z,15.90
2018-07-24T02:55:43.619Z,14.35
2018-07-24T02:58:11.356Z,13.83
2018-07-24T03:00:39.151Z,13.68
2018-07-24T03:03:06.990Z,13.27
2018-07-24T03:05:34.669Z,13.50
2018-07-24T03:08:03.049Z,13.80
2018-07-24T03:10:30.777Z,13.28
2018-07-24T03:12:58.428Z,13.80
2018-07-24T03:15:26.188Z,14.87
2018-07-24T03:17:53.836Z,15.83
2018-07-24T03:20:21.545Z,14.70
2018-07-24T03:22:49.242Z,13.38
2018-07-24T03:25:17.091Z,12.53
2018-07-24T03:27:44.846Z,13.13
2018-07-24T03:30:12.597Z,13.98
2018-07-24T03:32:40.212Z,13.62
2018-07-24T03:35:07.954Z,13.18
2018-07-24T03:37:35.572Z,13.85
2018-07-24T03:40:03.422Z,13.93
2018-07-24T03:42:31.126Z,14.85
2018-07-24T03:44:59.115Z,14.63
2018-07-24T03:47:26.777Z,13.58
2018-07-24T03:49:54.534Z,12.88
2018-07-24T03:52:22.968Z,13.53
2018-07-24T03:54:50.688Z,14.35
2018-07-24T03:57:18.383Z,13.83
2018-07-24T03:59:46.098Z,13.15
2018-07-24T04:02:14.280Z,12.73
2018-07-24T04:04:42.016Z,11.75
2018-07-24T04:07:09.779Z,11.05
2018-07-24T04:09:37.908Z,11.83
2018-07-24T04:12:06.794Z,11.73
2018-07-24T04:14:35.866Z,11.48
2018-07-24T04:17:03.689Z,10.50
2018-07-24T04:19:31.281Z,9.93
2018-07-24T04:21:59.025Z,12.30
2018-07-24T04:24:26.807Z,10.57
2018-07-24T04:26:55.439Z,14.15
2018-07-24T04:29:23.278Z,17.12
2018-07-24T04:31:51.008Z,15.50
2018-07-24T04:34:18.583Z,15.18
2018-07-24T04:36:46.174Z,14.30
2018-07-24T04:39:13.953Z,13.70
2018-07-24T04:41:41.690Z,16.97
2018-07-24T04:44:09.357Z,16.73
2018-07-24T04:46:37.128Z,14.50
2018-07-24T04:49:04.998Z,13.43
2018-07-24T04:51:32.810Z,12.70
2018-07-24T04:54:00.634Z,20.48
2018-07-24T04:56:28.326Z,15.50
2018-07-24T04:58:56.037Z,15.60
2018-07-24T05:01:23.872Z,13.93
2018-07-24T05:03:51.505Z,15.03
2018-07-24T05:06:19.178Z,12.75
2018-07-24T05:08:46.834Z,11.77
2018-07-24T05:11:15.022Z,12.23
2018-07-24T05:13:42.677Z,12.37
2018-07-24T05:16:10.346Z,14.38
2018-07-24T05:18:37.969Z,12.70
2018-07-24T05:21:05.844Z,20.90
2018-07-24T05:23:33.545Z,16.00
2018-07-24T05:26:01.207Z,15.98
2018-07-24T05:28:28.883Z,15.80
2018-07-24T05:30:56.653Z,15.10
2018-07-24T05:33:24.351Z,12.43
2018-07-24T05:35:51.998Z,12.27
2018-07-24T05:38:19.767Z,9.88
2018-07-24T05:40:47.484Z,8.75
2018-07-24T05:43:15.765Z,9.43
2018-07-24T05:45:43.530Z,9.38
2018-07-24T05:48:11.167Z,9.13
2018-07-24T05:50:38.753Z,8.88
2018-07-24T05:53:06.524Z,7.83
2018-07-24T05:55:34.188Z,7.45
2018-07-24T05:58:01.826Z,8.03
2018-07-24T06:00:29.564Z,7.45
2018-07-24T06:02:57.291Z,9.08
2018-07-24T06:05:25.015Z,7.87
2018-07-24T06:07:52.790Z,6.78
2018-07-24T06:10:20.434Z,7.37
2018-07-24T06:12:48.138Z,6.28
2018-07-24T06:15:15.877Z,7.45
2018-07-24T06:17:43.614Z,8.70
2018-07-24T06:20:11.561Z,8.75
2018-07-24T06:22:39.213Z,7.78
2018-07-24T06:25:07.261Z,8.23
2018-07-24T06:27:35.673Z,9.18
2018-07-24T06:30:04.541Z,12.35
2018-07-24T06:32:32.250Z,13.15
2018-07-24T06:35:00.086Z,11.40
2018-07-24T06:37:27.822Z,12.40
2018-07-24T06:39:55.517Z,10.70
2018-07-24T06:42:23.356Z,9.60
2018-07-24T06:44:51.013Z,11.55
2018-07-24T06:47:18.865Z,8.55
2018-07-24T06:49:46.615Z,9.35
2018-07-24T06:52:14.318Z,10.18
2018-07-24T06:54:42.035Z,15.45
2018-07-24T06:57:10.043Z,15.08
2018-07-24T06:59:42.009Z,13.78
2018-07-24T07:02:09.786Z,10.18
2018-07-24T07:04:37.471Z,10.03
2018-07-24T07:07:05.362Z,10.00
2018-07-24T07:09:33.035Z,12.50
2018-07-24T07:12:00.739Z,13.05
2018-07-24T07:14:28.441Z,13.30
2018-07-24T07:16:56.190Z,12.25
2018-07-24T07:19:23.917Z,17.17
2018-07-24T07:21:51.606Z,20.25
2018-07-24T07:24:19.310Z,20.65
2018-07-24T07:26:47.178Z,23.83
2018-07-24T07:29:14.899Z,19.87
2018-07-24T07:31:42.586Z,27.98
2018-07-24T07:34:10.253Z,24.47
2018-07-24T07:36:37.850Z,23.75
2018-07-24T07:39:07.825Z,21.48
2018-07-24T07:41:35.474Z,22.75
2018-07-24T07:44:03.267Z,19.80
2018-07-24T07:46:30.984Z,19.87
2018-07-24T07:48:58.682Z,18.42
2018-07-24T07:51:26.504Z,24.63
2018-07-24T07:53:54.162Z,21.97
2018-07-24T07:56:22.038Z,21.10
2018-07-24T07:58:49.743Z,25.05
2018-07-24T08:01:17.464Z,23.20
2018-07-24T08:03:45.222Z,19.00
2018-07-24T08:06:12.763Z,21.40
2018-07-24T08:08:40.467Z,20.27
2018-07-24T08:11:08.198Z,24.02
2018-07-24T08:13:36.144Z,21.48
2018-07-24T08:16:03.849Z,19.37
2018-07-24T08:18:31.503Z,20.62
2018-07-24T08:20:59.211Z,19.67
2018-07-24T08:23:27.145Z,19.82
2018-07-24T08:25:54.822Z,19.23
2018-07-24T08:28:22.567Z,18.30
2018-07-24T08:30:50.634Z,19.00
2018-07-24T08:33:18.258Z,17.98
2018-07-24T08:35:46.164Z,19.62
2018-07-24T08:38:13.809Z,17.85
2018-07-24T08:40:41.491Z,15.83
2018-07-24T08:43:09.171Z,16.48
2018-07-24T08:45:36.938Z,15.90
2018-07-24T08:48:04.759Z,14.63
2018-07-24T08:50:32.394Z,15.40
2018-07-24T08:53:00.176Z,16.07
2018-07-24T08:55:28.009Z,14.73
2018-07-24T08:57:55.463Z,14.30
2018-07-24T09:00:23.163Z,14.05
2018-07-24T09:02:50.793Z,12.85
2018-07-24T09:05:18.484Z,12.37
2018-07-24T09:07:46.252Z,11.83
2018-07-24T09:10:14.633Z,11.90
2018-07-24T09:12:42.305Z,11.28
2018-07-24T09:15:10.131Z,11.78
2018-07-24T09:17:37.834Z,11.57
2018-07-24T09:20:05.536Z,11.65
2018-07-24T09:22:33.279Z,11.65
2018-07-24T09:25:00.955Z,10.80
2018-07-24T09:27:28.574Z,9.95
2018-07-24T09:29:56.299Z,10.85
2018-07-24T09:32:24.007Z,10.65
2018-07-24T09:34:51.696Z,10.75
2018-07-24T09:37:19.373Z,10.82
2018-07-24T09:39:47.158Z,10.90
2018-07-24T09:42:14.813Z,11.38
2018-07-24T09:44:42.490Z,10.50
2018-07-24T09:47:10.173Z,10.00
2018-07-24T09:49:37.842Z,9.18
2018-07-24T09:52:05.405Z,9.93
2018-07-24T09:54:33.130Z,11.03
2018-07-24T09:57:00.826Z,10.82
2018-07-24T09:59:28.588Z,9.98
2018-07-24T10:01:56.189Z,10.08
2018-07-24T10:04:23.861Z,9.15
2018-07-24T10:06:51.574Z,9.03
2018-07-24T10:09:19.223Z,8.83
2018-07-24T10:11:46.928Z,9.35
2018-07-24T10:14:14.586Z,8.75
2018-07-24T10:16:42.346Z,7.85
2018-07-24T10:19:09.906Z,9.35
2018-07-24T10:21:37.617Z,8.38
2018-07-24T10:24:05.393Z,8.98
2018-07-24T10:26:33.054Z,8.30
2018-07-24T10:29:01.194Z,8.10
2018-07-24T10:31:28.893Z,10.15
2018-07-24T10:33:56.558Z,10.10
2018-07-24T10:36:24.338Z,8.73
2018-07-24T10:38:51.997Z,6.90
2018-07-24T10:41:19.688Z,7.30
2018-07-24T10:43:47.669Z,8.38
2018-07-24T10:46:15.375Z,7.95
2018-07-24T10:48:43.080Z,9.20
2018-07-24T10:51:10.788Z,8.95
2018-07-24T10:53:38.504Z,8.05
2018-07-24T10:56:06.461Z,8.50
2018-07-24T10:58:34.337Z,8.60
2018-07-24T11:01:02.040Z,8.30
2018-07-24T11:03:30.024Z,6.90
2018-07-24T11:05:57.771Z,8.03
2018-07-24T11:08:26.693Z,8.65
2018-07-24T11:10:54.519Z,8.25
2018-07-24T11:13:22.321Z,9.20
2018-07-24T11:15:49.956Z,7.83
2018-07-24T11:18:17.686Z,8.75
2018-07-24T11:20:45.366Z,8.55
2018-07-24T11:23:13.189Z,7.58
2018-07-24T11:25:40.859Z,9.68
2018-07-24T11:28:08.704Z,10.10
2018-07-24T11:30:36.428Z,9.25
2018-07-24T11:33:04.188Z,8.03
2018-07-24T11:35:32.079Z,8.70
2018-07-24T11:37:59.749Z,9.98
2018-07-24T11:40:27.567Z,10.08
2018-07-24T11:42:55.505Z,9.40
2018-07-24T11:45:23.337Z,9.60
2018-07-24T11:47:51.079Z,9.63
2018-07-24T11:50:18.772Z,8.73
2018-07-24T11:52:46.499Z,9.03
2018-07-24T11:55:14.133Z,9.95
2018-07-24T11:57:41.965Z,9.25
2018-07-24T12:00:09.775Z,8.98
2018-07-24T12:02:37.451Z,8.28
2018-07-24T12:05:05.316Z,9.08
2018-07-24T12:07:33.034Z,8.08
2018-07-24T12:10:00.605Z,6.87
2018-07-24T12:12:28.490Z,6.95
2018-07-24T12:14:56.273Z,6.45
2018-07-24T12:17:23.989Z,8.10
2018-07-24T12:19:51.856Z,8.53
2018-07-24T12:22:19.984Z,8.48
2018-07-24T12:24:47.745Z,7.55
2018-07-24T12:27:15.499Z,8.23
2018-07-24T12:29:43.232Z,7.28
2018-07-24T12:32:10.981Z,6.55
2018-07-24T12:34:38.707Z,8.75
2018-07-24T12:37:06.426Z,8.90
2018-07-24T12:39:34.099Z,8.30
2018-07-24T12:42:01.799Z,8.20
2018-07-24T12:44:29.739Z,8.23
2018-07-24T12:46:57.434Z,8.73
2018-07-24T12:49:25.105Z,8.33
2018-07-24T12:51:52.843Z,6.90
2018-07-24T12:54:20.601Z,8.35
2018-07-24T12:56:48.262Z,8.68
2018-07-24T12:59:15.825Z,8.20
2018-07-24T13:01:43.500Z,8.33
2018-07-24T13:04:11.205Z,8.43
2018-07-24T13:06:38.901Z,7.03
2018-07-24T13:09:08.531Z,8.00
2018-07-24T13:11:36.230Z,8.40
2018-07-24T13:14:03.988Z,8.83
2018-07-24T13:16:31.681Z,7.87
2018-07-24T13:18:59.379Z,7.50
2018-07-24T13:21:27.094Z,7.58
2018-07-24T13:24:10.052Z,8.20
2018-07-24T13:26:37.966Z,7.23
2018-07-24T13:29:05.702Z,7.70
2018-07-24T13:31:33.398Z,8.08
2018-07-24T13:34:01.156Z,8.38
2018-07-24T13:36:28.972Z,9.00
2018-07-24T13:38:56.649Z,7.53
2018-07-24T13:41:24.748Z,7.78
2018-07-24T13:43:52.478Z,8.63
2018-07-24T13:46:20.279Z,9.98
2018-07-24T13:48:48.035Z,9.85
2018-07-24T13:51:15.609Z,10.68
2018-07-24T13:53:43.345Z,9.50
2018-07-24T13:56:11.048Z,9.48
2018-07-24T13:58:38.869Z,9.13
2018-07-24T14:01:06.848Z,8.53
2018-07-24T14:03:34.829Z,9.05
2018-07-24T14:06:02.595Z,9.43
2018-07-24T14:08:30.364Z,7.97
2018-07-24T14:10:57.946Z,8.13
2018-07-24T14:13:25.590Z,9.05
2018-07-24T14:27:25.665Z,8.53
2018-07-24T14:35:39.994Z,8.65
2018-07-24T14:44:15.874Z,9.00
2018-07-24T14:46:44.885Z,9.25
2018-07-24T14:49:12.661Z,8.85
2018-07-24T14:54:33.310Z,9.05
2018-07-24T14:57:19.520Z,9.18
2018-07-24T15:02:41.963Z,9.23
2018-07-24T15:05:09.968Z,8.20
2018-07-24T15:07:37.866Z,8.95
2018-07-24T15:10:05.604Z,9.35
2018-07-24T15:12:33.387Z,8.48
2018-07-24T15:15:01.436Z,8.93
2018-07-24T15:17:29.202Z,9.55
2018-07-24T15:19:56.859Z,8.05
2018-07-24T15:22:24.853Z,8.13
2018-07-24T15:24:52.397Z,8.30
2018-07-24T15:27:20.381Z,8.37
2018-07-24T15:29:48.008Z,9.00
2018-07-24T15:32:15.767Z,7.90
2018-07-24T15:34:44.570Z,8.58
2018-07-24T15:37:12.223Z,7.63
2018-07-24T15:39:39.962Z,6.22
2018-07-24T15:42:07.674Z,7.25
2018-07-24T15:44:35.477Z,8.93
2018-07-24T15:47:03.244Z,8.55
2018-07-24T15:49:31.026Z,7.90
2018-07-24T15:51:58.786Z,6.70
2018-07-24T15:54:26.516Z,5.90
2018-07-24T15:56:54.275Z,7.72
2018-07-24T15:59:22.070Z,8.40
2018-07-24T16:01:49.868Z,7.33
2018-07-24T16:04:17.521Z,8.13
2018-07-24T16:06:45.354Z,8.85
2018-07-24T16:09:13.521Z,8.48
2018-07-24T16:11:41.354Z,7.92
2018-07-24T16:14:09.419Z,9.33
2018-07-24T16:16:37.600Z,7.75
2018-07-24T16:19:05.495Z,7.83
2018-07-24T16:21:33.182Z,7.08
2018-07-24T16:24:00.846Z,8.53
2018-07-24T16:26:28.560Z,9.03
2018-07-24T16:28:56.354Z,8.48
2018-07-24T16:31:24.101Z,8.43
2018-07-24T16:33:51.833Z,7.37
2018-07-24T16:36:20.788Z,7.10
2018-07-24T16:38:48.543Z,8.98
2018-07-24T16:41:16.281Z,9.05
2018-07-24T16:43:44.395Z,7.25
2018-07-24T16:46:12.143Z,6.90
2018-07-24T16:48:39.957Z,7.10
2018-07-24T16:51:07.727Z,7.78
2018-07-24T16:53:35.474Z,7.30
2018-07-24T16:56:03.205Z,7.55
2018-07-24T16:58:31.023Z,6.87
2018-07-24T17:00:58.781Z,6.53
2018-07-24T17:03:26.626Z,8.15
2018-07-24T17:05:54.355Z,7.10
2018-07-24T17:08:22.251Z,10.08
2018-07-24T17:10:50.116Z,9.03
2018-07-24T17:13:17.842Z,8.38
2018-07-24T17:15:45.496Z,8.80
2018-07-24T17:18:13.179Z,7.90
2018-07-24T17:20:41.045Z,7.95
2018-07-24T17:23:08.796Z,7.62
2018-07-24T17:25:36.529Z,8.03
2018-07-24T17:28:04.338Z,7.97
2018-07-24T17:30:31.873Z,7.75
2018-07-24T17:32:59.560Z,8.43
2018-07-24T17:35:27.232Z,7.28
2018-07-24T17:37:54.975Z,6.90
2018-07-24T17:40:22.808Z,6.87
2018-07-24T17:42:50.596Z,6.50
2018-07-24T17:45:18.298Z,7.00
2018-07-24T17:47:46.075Z,7.70
2018-07-24T17:50:13.797Z,7.37
2018-07-24T17:52:41.526Z,8.50
2018-07-24T17:55:09.385Z,9.45
2018-07-24T17:57:37.733Z,8.38
2018-07-24T18:00:05.511Z,8.13
2018-07-24T18:02:33.460Z,7.15
2018-07-24T18:05:01.542Z,6.85
2018-07-24T18:07:29.410Z,6.53
2018-07-24T18:09:57.089Z,5.40
2018-07-24T18:12:24.972Z,5.47
2018-07-24T18:14:52.816Z,5.47
2018-07-24T18:17:20.590Z,6.28
2018-07-24T18:19:48.325Z,5.10
2018-07-24T18:22:16.045Z,5.95
2018-07-24T18:24:43.732Z,4.30
2018-07-24T18:27:11.473Z,5.05
2018-07-24T18:29:39.322Z,5.55
2018-07-24T18:32:07.457Z,5.70
2018-07-24T18:34:35.173Z,4.92
2018-07-24T18:37:02.917Z,6.47
2018-07-24T18:39:30.693Z,6.33
2018-07-24T18:41:58.334Z,5.30
2018-07-24T18:44:26.114Z,5.83
2018-07-24T18:46:53.867Z,5.80
2018-07-24T18:49:21.562Z,5.70
2018-07-24T18:51:49.316Z,6.67
2018-07-24T18:54:17.153Z,7.17
2018-07-24T18:56:44.854Z,7.90
2018-07-24T18:59:12.582Z,7.78
2018-07-24T19:01:40.267Z,8.58
2018-07-24T19:04:08.011Z,7.40
2018-07-24T19:06:35.671Z,7.45
2018-07-24T19:09:05.297Z,7.75
2018-07-24T19:11:33.044Z,6.25
2018-07-24T19:14:00.811Z,8.23
2018-07-24T19:16:33.989Z,7.92
2018-07-24T19:19:01.895Z,7.45
2018-07-24T19:21:29.659Z,8.48
2018-07-24T19:23:57.380Z,8.30
2018-07-24T19:26:24.984Z,7.95
2018-07-24T19:28:52.822Z,8.60
2018-07-24T19:31:20.669Z,7.70
2018-07-24T19:33:48.333Z,7.80
2018-07-24T19:36:16.110Z,7.90
2018-07-24T19:38:43.975Z,8.10
2018-07-24T19:41:11.717Z,7.78
2018-07-24T19:43:39.489Z,8.15
2018-07-24T19:46:07.192Z,8.20
2018-07-24T19:48:34.830Z,6.95
2018-07-24T19:51:02.593Z,7.50
2018-07-24T19:53:30.249Z,8.23
2018-07-24T19:55:58.038Z,8.38
2018-07-24T19:58:26.441Z,8.05
2018-07-24T20:00:54.282Z,8.70
2018-07-24T20:03:22.037Z,8.08
2018-07-24T20:05:49.673Z,7.97
2018-07-24T20:08:17.333Z,8.13
2018-07-24T20:10:45.079Z,8.75
2018-07-24T20:13:12.789Z,8.35
2018-07-24T20:15:40.935Z,8.18
2018-07-24T20:18:08.797Z,7.72
2018-07-24T20:20:36.494Z,8.50
2018-07-24T20:23:04.238Z,8.25
2018-07-24T20:25:32.664Z,9.20
2018-07-24T20:28:00.328Z,8.50
2018-07-24T20:30:28.141Z,8.93
2018-07-24T20:32:55.878Z,8.78
2018-07-24T20:35:23.732Z,9.13
2018-07-24T20:37:51.424Z,9.87
2018-07-24T20:40:19.231Z,9.73
2018-07-24T20:42:46.946Z,9.90
2018-07-24T20:45:14.624Z,9.10
2018-07-24T20:47:42.331Z,9.50
2018-07-24T20:50:10.010Z,10.65
2018-07-24T20:52:37.740Z,11.75
2018-07-24T20:55:05.445Z,11.05
2018-07-24T20:57:33.862Z,9.90
2018-07-24T21:00:01.694Z,9.55
2018-07-24T21:02:29.358Z,10.72
2018-07-24T21:04:57.144Z,10.20
2018-07-24T21:07:24.943Z,9.93
2018-07-24T21:09:52.551Z,9.90
2018-07-24T21:12:20.289Z,10.85
2018-07-24T21:14:48.065Z,10.75
2018-07-24T21:17:15.797Z,10.43
2018-07-24T21:19:43.674Z,10.53
2018-07-24T21:22:11.525Z,9.40
2018-07-24T21:24:39.225Z,9.00
2018-07-24T21:27:07.027Z,8.80
2018-07-24T21:29:34.753Z,8.15
2018-07-24T21:32:02.719Z,8.45
2018-07-24T21:34:30.471Z,9.13
2018-07-24T21:36:58.178Z,8.87
2018-07-24T21:39:25.864Z,9.48
2018-07-24T21:41:53.680Z,9.05
2018-07-24T21:44:21.447Z,9.20
2018-07-24T21:46:49.155Z,9.63
2018-07-24T21:49:16.908Z,9.15
2018-07-24T21:51:44.457Z,10.53
2018-07-24T21:54:12.186Z,11.83
2018-07-24T21:56:39.982Z,11.08
2018-07-24T21:59:07.905Z,11.22
2018-07-24T22:01:36.497Z,10.70
2018-07-24T22:04:05.311Z,10.35
2018-07-24T22:06:33.936Z,9.70
2018-07-24T22:09:02.673Z,9.58
2018-07-24T22:11:31.132Z,10.03
2018-07-24T22:13:59.720Z,10.43
2018-07-24T22:16:27.438Z,9.70
2018-07-24T22:18:55.208Z,8.55
2018-07-24T22:21:23.062Z,9.15
2018-07-24T22:23:50.842Z,9.98
2018-07-24T22:26:18.764Z,9.95
2018-07-24T22:28:46.569Z,9.53
2018-07-24T22:31:14.386Z,10.43
2018-07-24T22:33:42.225Z,10.03
2018-07-24T22:36:10.166Z,10.72
2018-07-24T22:38:37.954Z,11.33
2018-07-24T22:41:05.677Z,10.72
2018-07-24T22:43:33.472Z,11.60
2018-07-24T22:46:01.908Z,11.35
2018-07-24T22:48:29.670Z,10.98
2018-07-24T22:50:57.415Z,10.15
2018-07-24T22:53:25.128Z,9.40
2018-07-24T22:55:52.890Z,10.70
2018-07-24T22:58:20.602Z,11.68
2018-07-24T23:00:48.269Z,11.20
2018-07-24T23:03:16.045Z,10.08
2018-07-24T23:05:43.800Z,10.28
2018-07-24T23:08:12.196Z,9.18
2018-07-24T23:10:40.005Z,9.15
2018-07-24T23:13:07.690Z,9.35
2018-07-24T23:15:35.431Z,9.50
2018-07-24T23:18:03.130Z,9.90
2018-07-24T23:20:31.546Z,10.75
2018-07-24T23:22:59.224Z,11.12
2018-07-24T23:25:26.916Z,12.40
2018-07-24T23:27:54.666Z,11.30
2018-07-24T23:30:22.445Z,11.45
2018-07-24T23:32:50.278Z,10.68
2018-07-24T23:35:18.050Z,10.48
2018-07-24T23:37:45.745Z,10.15
2018-07-24T23:40:13.654Z,9.13
2018-07-24T23:42:41.269Z,9.30
2018-07-24T23:45:08.942Z,8.63
2018-07-24T23:47:36.633Z,8.20
2018-07-24T23:50:04.866Z,7.97
2018-07-24T23:52:32.694Z,8.98
2018-07-24T23:55:00.387Z,9.33
2018-07-24T23:57:28.090Z,9.23
2018-07-24T23:59:55.949Z,8.70
